Ocean Beaut — WDD7485 — position and weather

sailwx.info

Track history (hours):
 
Tides and Currents Weather Stations Pressure Air Temp Water Temp Dewpoint Dewpoint Depression Visibility Wind Speed Wind Dir Waves Ship Positions

Ocean Beaut

Owner: John Moreland Fishing Inc., Astoria, OR. More information available from US FCC via Universal Licensing System.

Last reported at 2016-Feb-11 20:33 UTC. Time now 2016-Feb-11 21:18 UTC.
Position N 46°12' W 123°48'.

Length 20 m.

Type: Fishing. MMSI: 367187080.

Date/timePositionNaut miles runAvg speedWind from/ knotsBaromVisibWave heightAir tempDewpointWater temp
2016-Feb-11 20:33N 46°12' W 123°48'0 0.0
2016-Feb-11 19:33N 46°12' W 123°48'0 0.0
2016-Feb-11 18:33N 46°12' W 123°48'0 0.0
2016-Feb-11 17:33N 46°12' W 123°48'0 0.0
2016-Feb-11 16:33N 46°12' W 123°48'0 0.0
2016-Feb-11 15:33N 46°12' W 123°48'0 0.0
2016-Feb-11 14:33N 46°12' W 123°48'0 0.0
2016-Feb-11 13:33N 46°12' W 123°48'0 0.0
2016-Feb-11 12:33N 46°12' W 123°48'0 0.0
2016-Feb-11 11:33N 46°12' W 123°48'0 0.0
2016-Feb-11 10:30N 46°12' W 123°48'0 0.0
2016-Feb-11 09:33N 46°12' W 123°48'0 0.0
2016-Feb-11 08:33N 46°12' W 123°48'0 0.0
2016-Feb-11 07:33N 46°12' W 123°48'0 0.0
2016-Feb-11 06:33N 46°12' W 123°48'0 0.0
2016-Feb-11 05:33N 46°12' W 123°48'0 0.0
2016-Feb-11 04:33N 46°12' W 123°48'0 0.0
2016-Feb-11 03:33N 46°12' W 123°48'0 0.0
2016-Feb-11 02:33N 46°12' W 123°48'0 0.0
2016-Feb-11 01:33N 46°12' W 123°48'0 0.0
2016-Feb-11 00:33N 46°12' W 123°48'0 0.0
2016-Feb-10 23:33N 46°12' W 123°48'0 0.0
2016-Feb-10 22:33N 46°12' W 123°48'0 0.0
2016-Feb-10 21:33N 46°12' W 123°48'0 0.0
2016-Feb-10 20:33N 46°12' W 123°48'0 0.0
2016-Feb-10 19:33N 46°12' W 123°48'0 0.0
2016-Feb-10 18:33N 46°12' W 123°48'0 0.0
2016-Feb-10 17:33N 46°12' W 123°48'0 0.0
2016-Feb-10 16:33N 46°12' W 123°48'0 0.0
2016-Feb-10 15:33N 46°12' W 123°48'0 0.0
2016-Feb-10 14:33N 46°12' W 123°48'0 0.0
2016-Feb-10 13:33N 46°12' W 123°48'0 0.0
2016-Feb-10 12:33N 46°12' W 123°48'0 0.0
2016-Feb-10 11:33N 46°12' W 123°48'0 0.0
2016-Feb-10 10:33N 46°12' W 123°48'0 0.0
2016-Feb-10 09:33N 46°12' W 123°48'0 0.0
2016-Feb-10 08:33N 46°12' W 123°48'0 0.0
2016-Feb-10 07:33N 46°12' W 123°48'0 0.0
2016-Feb-10 06:33N 46°12' W 123°48'0 0.0
2016-Feb-10 05:33N 46°12' W 123°48'0 0.0
2016-Feb-10 04:33N 46°12' W 123°48'0 0.0
2016-Feb-10 03:30N 46°12' W 123°48'0 0.0
2016-Feb-10 02:33N 46°12' W 123°48'0 0.0
2016-Feb-10 01:34N 46°12' W 123°48'0 0.0
2016-Feb-10 00:33N 46°12' W 123°48'0 0.0
2016-Feb-09 23:33N 46°12' W 123°48'0 0.0
2016-Feb-09 22:30N 46°12' W 123°48'0 0.0
2016-Feb-09 21:34N 46°12' W 123°48'0 0.0
2016-Feb-09 20:34N 46°12' W 123°48'2 1.5
2016-Feb-09 19:34N 46°12' W 123°50'1 0.8
2016-Feb-09 18:32N 46°11' W 123°51'0 0.0
2016-Feb-09 17:32N 46°11' W 123°51'0 0.0
2016-Feb-09 16:32N 46°11' W 123°51'0 0.0
2016-Feb-09 15:29N 46°11' W 123°51'0 0.0
2016-Feb-09 14:32N 46°11' W 123°51'0 0.0
2016-Feb-09 13:32N 46°11' W 123°51'0 0.0
2016-Feb-09 12:32N 46°11' W 123°51'0 0.0
2016-Feb-09 11:32N 46°11' W 123°51'0 0.0
2016-Feb-09 10:32N 46°11' W 123°51'0 0.0
2016-Feb-09 09:32N 46°11' W 123°51'0 0.0
2016-Feb-09 08:32N 46°11' W 123°51'0 0.0
2016-Feb-09 07:32N 46°11' W 123°51'0 0.0
2016-Feb-09 06:33N 46°11' W 123°51'8 7.8
2016-Feb-09 05:33N 46°15' W 124°01'7 6.7
2016-Feb-09 04:33N 46°13' W 124°10'6 5.6
2016-Feb-09 03:33N 46°13' W 124°18'6 6.4
2016-Feb-09 02:33N 46°14' W 124°27'7 6.8
2016-Feb-09 01:33N 46°16' W 124°37'2 2.3
2016-Feb-09 00:33N 46°18' W 124°39'2 1.8
2016-Feb-08 23:33N 46°20' W 124°39'1 1.1
2016-Feb-08 22:33N 46°18' W 124°39'2 2.1
2016-Feb-08 21:32N 46°17' W 124°38'2 1.8
2016-Feb-08 20:33N 46°15' W 124°36'5 5.1
2016-Feb-08 19:33N 46°11' W 124°41'2 1.8
2016-Feb-08 18:33N 46°10' W 124°41'2 2.2
2016-Feb-08 17:33N 46°08' W 124°43'2 2.1
2016-Feb-08 16:33N 46°06' W 124°45'2 2.1
2016-Feb-08 15:33N 46°05' W 124°48'2 1.9
2016-Feb-08 14:28N 46°07' W 124°47'4 4.3
2016-Feb-08 13:33N 46°09' W 124°42'1 1.3
2016-Feb-08 12:33N 46°08' W 124°43'2 2.2
2016-Feb-08 11:33N 46°06' W 124°45'2 2.3
2016-Feb-08 10:33N 46°04' W 124°47'2 2.4
2016-Feb-08 09:33N 46°02' W 124°48'2 2.3
2016-Feb-08 08:32N 45°60' W 124°48'2 2.2
2016-Feb-08 07:32N 45°58' W 124°46'3 2.5
2016-Feb-08 06:30N 45°55' W 124°45'7 6.9
2016-Feb-08 05:31N 45°49' W 124°45'8 7.5
2016-Feb-08 04:28N 45°41' W 124°46'2 2.0
2016-Feb-08 03:32N 45°39' W 124°45'3 2.5
2016-Feb-08 02:30N 45°36' W 124°45'6 1.9
2016-Feb-07 23:16N 45°42' W 124°46'4 1.8
2016-Feb-07 21:06N 45°46' W 124°47'1 0.2
2016-Feb-07 18:30N 45°46' W 124°46'10 3.0
2016-Feb-07 15:20N 45°56' W 124°46'2 2.9
2016-Feb-07 14:28N 45°58' W 124°46'2 2.2
2016-Feb-07 13:33N 46°00' W 124°48'2 2.3
2016-Feb-07 12:33N 46°02' W 124°48'3 2.3
2016-Feb-07 11:20N 46°05' W 124°46'2 2.3
2016-Feb-07 10:33N 46°06' W 124°45'4 3.4
2016-Feb-07 09:30N 46°10' W 124°42'6 6.8
2016-Feb-07 08:33N 46°15' W 124°37'1 1.3
2016-Feb-07 07:32N 46°16' W 124°37'2 2.2
2016-Feb-07 06:33N 46°18' W 124°40'2 1.5
2016-Feb-07 05:33N 46°19' W 124°39'1 0.8
2016-Feb-07 04:31N 46°19' W 124°40'2 1.8
2016-Feb-07 03:33N 46°17' W 124°39'1 0.8
2016-Feb-07 02:33N 46°17' W 124°38'2 2.2
2016-Feb-07 01:33N 46°18' W 124°40'1 1.0
2016-Feb-07 00:33N 46°19' W 124°39'2 1.6
2016-Feb-06 23:34N 46°18' W 124°39'2 2.3
2016-Feb-06 22:33N 46°16' W 124°37'6 6.2
2016-Feb-06 21:32N 46°14' W 124°29'7 7.6
2016-Feb-06 20:33N 46°13' W 124°18'8 8.1
2016-Feb-06 19:33N 46°15' W 124°07'7 7.2
2016-Feb-06 18:33N 46°13' W 123°57'6 6.0
2016-Feb-06 17:32N 46°12' W 123°48'0 0.0
2016-Feb-06 16:32N 46°12' W 123°48'0 0.0
2016-Feb-06 15:32N 46°12' W 123°48'0 0.0
2016-Feb-06 14:32N 46°12' W 123°48'0 0.0
2016-Feb-06 13:32N 46°12' W 123°48'0 0.0
2016-Feb-06 12:29N 46°12' W 123°48'0 0.0
2016-Feb-06 11:32N 46°12' W 123°48'0 0.0
2016-Feb-06 10:32N 46°12' W 123°48'0 0.0
2016-Feb-06 09:32N 46°12' W 123°48'0 0.0
2016-Feb-06 08:32N 46°12' W 123°48'0 0.0
2016-Feb-06 07:32N 46°12' W 123°48'0 0.0
2016-Feb-06 06:32N 46°12' W 123°48'0 0.0
2016-Feb-06 05:32N 46°12' W 123°48'0 0.0
2016-Feb-06 04:32N 46°12' W 123°48'0 0.0
2016-Feb-06 03:32N 46°12' W 123°48'0 0.0
2016-Feb-06 02:32N 46°12' W 123°48'0 0.0
2016-Feb-06 01:32N 46°12' W 123°48'0 0.0
2016-Feb-06 00:32N 46°12' W 123°48'0 0.0
2016-Feb-05 23:32N 46°12' W 123°48'0 0.0
2016-Feb-05 22:32N 46°12' W 123°48'0 0.0
2016-Feb-05 21:32N 46°12' W 123°48'0 0.0
2016-Feb-05 20:32N 46°12' W 123°48'2 2.3
2016-Feb-05 19:34N 46°12' W 123°51'0 0.3
2016-Feb-05 18:31N 46°11' W 123°51'1 0.9
2016-Feb-05 17:33N 46°12' W 123°50'2 1.5
2016-Feb-05 16:31N 46°12' W 123°48'0 0.0
2016-Feb-05 15:31N 46°12' W 123°48'0 0.0
2016-Feb-05 14:31N 46°12' W 123°48'0 0.0
2016-Feb-05 13:31N 46°12' W 123°48'0 0.0
2016-Feb-05 12:31N 46°12' W 123°48'0 0.0
2016-Feb-05 11:31N 46°12' W 123°48'0 0.0
2016-Feb-05 10:31N 46°12' W 123°48'0 0.0
2016-Feb-05 09:31N 46°12' W 123°48'0 0.0
2016-Feb-05 08:31N 46°12' W 123°48'0 0.0
2016-Feb-05 07:31N 46°12' W 123°48'0 0.0
2016-Feb-05 06:31N 46°12' W 123°48'0 0.0
2016-Feb-05 05:31N 46°12' W 123°48'0 0.0
2016-Feb-05 04:31N 46°12' W 123°48'0 0.0
2016-Feb-05 03:31N 46°12' W 123°48'0 0.0
2016-Feb-05 02:31N 46°12' W 123°48'0 0.0
2016-Feb-05 01:31N 46°12' W 123°48'0 0.0
2016-Feb-05 00:28N 46°12' W 123°48'0 0.0
2016-Feb-04 23:25N 46°12' W 123°48'0 0.0
2016-Feb-04 22:31N 46°12' W 123°48'0 0.0
2016-Feb-04 21:31N 46°12' W 123°48'0 0.0
2016-Feb-04 20:31N 46°12' W 123°48'0 0.0
2016-Feb-04 19:31N 46°12' W 123°48'0 0.0
2016-Feb-04 18:31N 46°12' W 123°48'0 0.0
2016-Feb-04 17:31N 46°12' W 123°48'0 0.0
2016-Feb-04 16:31N 46°12' W 123°48'0 0.0
2016-Feb-04 15:31N 46°12' W 123°48'0 0.0
2016-Feb-04 14:31N 46°12' W 123°48'0 0.0
2016-Feb-04 13:31N 46°12' W 123°48'0 0.0
2016-Feb-04 12:31N 46°12' W 123°48'0 0.0
2016-Feb-04 11:31N 46°12' W 123°48'0 0.0
2016-Feb-04 10:31N 46°12' W 123°48'0 0.0
2016-Feb-04 09:31N 46°12' W 123°48'0 0.0
2016-Feb-04 08:31N 46°12' W 123°48'0 0.0
2016-Feb-04 07:31N 46°12' W 123°48'0 0.0
2016-Feb-04 06:31N 46°12' W 123°48'0 0.0
2016-Feb-04 05:31N 46°12' W 123°48'0 0.0
2016-Feb-04 04:31N 46°12' W 123°48'0 0.0
2016-Feb-04 03:28N 46°12' W 123°48'0 0.0
2016-Feb-04 02:32N 46°12' W 123°48'0 0.0
2016-Feb-04 01:31N 46°12' W 123°48'0 0.0
2016-Feb-04 00:32N 46°12' W 123°48'0 0.0
2016-Feb-03 23:31N 46°12' W 123°48'0 0.0
2016-Feb-03 22:31N 46°12' W 123°48'0 0.0
2016-Feb-03 21:32N 46°12' W 123°48'0 0.0
2016-Feb-03 20:32N 46°12' W 123°48'0 0.0
2016-Feb-03 19:31N 46°12' W 123°48'0 0.0
2016-Feb-03 18:32N 46°12' W 123°48'0 0.0
2016-Feb-03 17:32N 46°12' W 123°48'0 0.0
2016-Feb-03 16:32N 46°12' W 123°48'0 0.0
2016-Feb-03 15:32N 46°12' W 123°48'0 0.0
2016-Feb-03 14:32N 46°12' W 123°48'0 0.0
2016-Feb-03 13:32N 46°12' W 123°48'0 0.0
2016-Feb-03 12:32N 46°12' W 123°48'0 0.0
2016-Feb-03 11:32N 46°12' W 123°48'0 0.0
2016-Feb-03 10:32N 46°12' W 123°48'0 0.0
2016-Feb-03 09:32N 46°12' W 123°48'0 0.0
2016-Feb-03 08:32N 46°12' W 123°48'0 0.0
2016-Feb-03 07:32N 46°12' W 123°48'0 0.0
2016-Feb-03 06:32N 46°12' W 123°48'0 0.0
2016-Feb-03 05:32N 46°12' W 123°48'0 0.0
2016-Feb-03 04:32N 46°12' W 123°48'0 0.0
2016-Feb-03 03:32N 46°12' W 123°48'0 0.0
2016-Feb-03 02:32N 46°12' W 123°48'0 0.0
2016-Feb-03 01:32N 46°12' W 123°48'0 0.0
2016-Feb-03 00:32N 46°12' W 123°48'0 0.0
2016-Feb-02 23:32N 46°12' W 123°48'0 0.0
2016-Feb-02 22:32N 46°12' W 123°48'0 0.0
2016-Feb-02 21:32N 46°12' W 123°48'0 0.0
2016-Feb-02 20:32N 46°12' W 123°48'0 0.0
2016-Feb-02 19:32N 46°12' W 123°48'0 0.0
2016-Feb-02 18:32N 46°12' W 123°48'0 0.0
2016-Feb-02 17:32N 46°12' W 123°48'0 0.0
2016-Feb-02 16:32N 46°12' W 123°48'0 0.0
2016-Feb-02 15:32N 46°12' W 123°48'0 0.0
2016-Feb-02 14:32N 46°12' W 123°48'0 0.0
2016-Feb-02 13:32N 46°12' W 123°48'0 0.0
2016-Feb-02 12:29N 46°12' W 123°48'0 0.0
2016-Feb-02 11:32N 46°12' W 123°48'0 0.0
2016-Feb-02 10:29N 46°12' W 123°48'0 0.0
2016-Feb-02 09:32N 46°12' W 123°48'0 0.0
2016-Feb-02 08:32N 46°12' W 123°48'0 0.0
2016-Feb-02 07:32N 46°12' W 123°48'0 0.0
2016-Feb-02 06:32N 46°12' W 123°48'0 0.0
2016-Feb-02 05:32N 46°12' W 123°48'0 0.0
2016-Feb-02 04:32N 46°12' W 123°48'0 0.0
2016-Feb-02 03:32N 46°12' W 123°48'0 0.0
2016-Feb-02 02:32N 46°12' W 123°48'0 0.0
2016-Feb-02 01:32N 46°12' W 123°48'0 0.0
2016-Feb-02 00:32N 46°12' W 123°48'0 0.0
2016-Feb-01 23:32N 46°12' W 123°48'0 0.0
2016-Feb-01 22:32N 46°12' W 123°48'0 0.0
2016-Feb-01 21:32N 46°12' W 123°48'  
Track history (hours):
 
Tides and Currents Weather Stations Pressure Air Temp Water Temp Dewpoint Dewpoint Depression Visibility Wind Speed Wind Dir Waves Ship Positions

Ocean Beaut

Owner: John Moreland Fishing Inc., Astoria, OR. More information available from US FCC via Universal Licensing System.

Last reported at 2016-Feb-11 20:33 UTC. Time now 2016-Feb-11 21:18 UTC.
Position N 46°12' W 123°48'.

Length 20 m.

Type: Fishing. MMSI: 367187080.

Date/timePositionNaut miles runAvg speedWind from/ knotsBaromVisibWave heightAir tempDewpointWater temp
2016-Feb-11 20:33N 46°12' W 123°48'0 0.0
2016-Feb-11 19:33N 46°12' W 123°48'0 0.0
2016-Feb-11 18:33N 46°12' W 123°48'0 0.0
2016-Feb-11 17:33N 46°12' W 123°48'0 0.0
2016-Feb-11 16:33N 46°12' W 123°48'0 0.0
2016-Feb-11 15:33N 46°12' W 123°48'0 0.0
2016-Feb-11 14:33N 46°12' W 123°48'0 0.0
2016-Feb-11 13:33N 46°12' W 123°48'0 0.0
2016-Feb-11 12:33N 46°12' W 123°48'0 0.0
2016-Feb-11 11:33N 46°12' W 123°48'0 0.0
2016-Feb-11 10:30N 46°12' W 123°48'0 0.0
2016-Feb-11 09:33N 46°12' W 123°48'0 0.0
2016-Feb-11 08:33N 46°12' W 123°48'0 0.0
2016-Feb-11 07:33N 46°12' W 123°48'0 0.0
2016-Feb-11 06:33N 46°12' W 123°48'0 0.0
2016-Feb-11 05:33N 46°12' W 123°48'0 0.0
2016-Feb-11 04:33N 46°12' W 123°48'0 0.0
2016-Feb-11 03:33N 46°12' W 123°48'0 0.0
2016-Feb-11 02:33N 46°12' W 123°48'0 0.0
2016-Feb-11 01:33N 46°12' W 123°48'0 0.0
2016-Feb-11 00:33N 46°12' W 123°48'0 0.0
2016-Feb-10 23:33N 46°12' W 123°48'0 0.0
2016-Feb-10 22:33N 46°12' W 123°48'0 0.0
2016-Feb-10 21:33N 46°12' W 123°48'0 0.0
2016-Feb-10 20:33N 46°12' W 123°48'0 0.0
2016-Feb-10 19:33N 46°12' W 123°48'0 0.0
2016-Feb-10 18:33N 46°12' W 123°48'0 0.0
2016-Feb-10 17:33N 46°12' W 123°48'0 0.0
2016-Feb-10 16:33N 46°12' W 123°48'0 0.0
2016-Feb-10 15:33N 46°12' W 123°48'0 0.0
2016-Feb-10 14:33N 46°12' W 123°48'0 0.0
2016-Feb-10 13:33N 46°12' W 123°48'0 0.0
2016-Feb-10 12:33N 46°12' W 123°48'0 0.0
2016-Feb-10 11:33N 46°12' W 123°48'0 0.0
2016-Feb-10 10:33N 46°12' W 123°48'0 0.0
2016-Feb-10 09:33N 46°12' W 123°48'0 0.0
2016-Feb-10 08:33N 46°12' W 123°48'0 0.0
2016-Feb-10 07:33N 46°12' W 123°48'0 0.0
2016-Feb-10 06:33N 46°12' W 123°48'0 0.0
2016-Feb-10 05:33N 46°12' W 123°48'0 0.0
2016-Feb-10 04:33N 46°12' W 123°48'0 0.0
2016-Feb-10 03:30N 46°12' W 123°48'0 0.0
2016-Feb-10 02:33N 46°12' W 123°48'0 0.0
2016-Feb-10 01:34N 46°12' W 123°48'0 0.0
2016-Feb-10 00:33N 46°12' W 123°48'0 0.0
2016-Feb-09 23:33N 46°12' W 123°48'0 0.0
2016-Feb-09 22:30N 46°12' W 123°48'0 0.0
2016-Feb-09 21:34N 46°12' W 123°48'0 0.0
2016-Feb-09 20:34N 46°12' W 123°48'2 1.5
2016-Feb-09 19:34N 46°12' W 123°50'1 0.8
2016-Feb-09 18:32N 46°11' W 123°51'0 0.0
2016-Feb-09 17:32N 46°11' W 123°51'0 0.0
2016-Feb-09 16:32N 46°11' W 123°51'0 0.0
2016-Feb-09 15:29N 46°11' W 123°51'0 0.0
2016-Feb-09 14:32N 46°11' W 123°51'0 0.0
2016-Feb-09 13:32N 46°11' W 123°51'0 0.0
2016-Feb-09 12:32N 46°11' W 123°51'0 0.0
2016-Feb-09 11:32N 46°11' W 123°51'0 0.0
2016-Feb-09 10:32N 46°11' W 123°51'0 0.0
2016-Feb-09 09:32N 46°11' W 123°51'0 0.0
2016-Feb-09 08:32N 46°11' W 123°51'0 0.0
2016-Feb-09 07:32N 46°11' W 123°51'0 0.0
2016-Feb-09 06:33N 46°11' W 123°51'8 7.8
2016-Feb-09 05:33N 46°15' W 124°01'7 6.7
2016-Feb-09 04:33N 46°13' W 124°10'6 5.6
2016-Feb-09 03:33N 46°13' W 124°18'6 6.4
2016-Feb-09 02:33N 46°14' W 124°27'7 6.8
2016-Feb-09 01:33N 46°16' W 124°37'2 2.3
2016-Feb-09 00:33N 46°18' W 124°39'2 1.8
2016-Feb-08 23:33N 46°20' W 124°39'1 1.1
2016-Feb-08 22:33N 46°18' W 124°39'2 2.1
2016-Feb-08 21:32N 46°17' W 124°38'2 1.8
2016-Feb-08 20:33N 46°15' W 124°36'5 5.1
2016-Feb-08 19:33N 46°11' W 124°41'2 1.8
2016-Feb-08 18:33N 46°10' W 124°41'2 2.2
2016-Feb-08 17:33N 46°08' W 124°43'2 2.1
2016-Feb-08 16:33N 46°06' W 124°45'2 2.1
2016-Feb-08 15:33N 46°05' W 124°48'2 1.9
2016-Feb-08 14:28N 46°07' W 124°47'4 4.3
2016-Feb-08 13:33N 46°09' W 124°42'1 1.3
2016-Feb-08 12:33N 46°08' W 124°43'2 2.2
2016-Feb-08 11:33N 46°06' W 124°45'2 2.3
2016-Feb-08 10:33N 46°04' W 124°47'2 2.4
2016-Feb-08 09:33N 46°02' W 124°48'2 2.3
2016-Feb-08 08:32N 45°60' W 124°48'2 2.2
2016-Feb-08 07:32N 45°58' W 124°46'3 2.5
2016-Feb-08 06:30N 45°55' W 124°45'7 6.9
2016-Feb-08 05:31N 45°49' W 124°45'8 7.5
2016-Feb-08 04:28N 45°41' W 124°46'2 2.0
2016-Feb-08 03:32N 45°39' W 124°45'3 2.5
2016-Feb-08 02:30N 45°36' W 124°45'6 1.9
2016-Feb-07 23:16N 45°42' W 124°46'4 1.8
2016-Feb-07 21:06N 45°46' W 124°47'1 0.2
2016-Feb-07 18:30N 45°46' W 124°46'10 3.0
2016-Feb-07 15:20N 45°56' W 124°46'2 2.9
2016-Feb-07 14:28N 45°58' W 124°46'2 2.2
2016-Feb-07 13:33N 46°00' W 124°48'2 2.3
2016-Feb-07 12:33N 46°02' W 124°48'3 2.3
2016-Feb-07 11:20N 46°05' W 124°46'2 2.3
2016-Feb-07 10:33N 46°06' W 124°45'4 3.4
2016-Feb-07 09:30N 46°10' W 124°42'6 6.8
2016-Feb-07 08:33N 46°15' W 124°37'1 1.3
2016-Feb-07 07:32N 46°16' W 124°37'2 2.2
2016-Feb-07 06:33N 46°18' W 124°40'2 1.5
2016-Feb-07 05:33N 46°19' W 124°39'1 0.8
2016-Feb-07 04:31N 46°19' W 124°40'2 1.8
2016-Feb-07 03:33N 46°17' W 124°39'1 0.8
2016-Feb-07 02:33N 46°17' W 124°38'2 2.2
2016-Feb-07 01:33N 46°18' W 124°40'1 1.0
2016-Feb-07 00:33N 46°19' W 124°39'2 1.6
2016-Feb-06 23:34N 46°18' W 124°39'2 2.3
2016-Feb-06 22:33N 46°16' W 124°37'6 6.2
2016-Feb-06 21:32N 46°14' W 124°29'7 7.6
2016-Feb-06 20:33N 46°13' W 124°18'8 8.1
2016-Feb-06 19:33N 46°15' W 124°07'7 7.2
2016-Feb-06 18:33N 46°13' W 123°57'6 6.0
2016-Feb-06 17:32N 46°12' W 123°48'0 0.0
2016-Feb-06 16:32N 46°12' W 123°48'0 0.0
2016-Feb-06 15:32N 46°12' W 123°48'0 0.0
2016-Feb-06 14:32N 46°12' W 123°48'0 0.0
2016-Feb-06 13:32N 46°12' W 123°48'0 0.0
2016-Feb-06 12:29N 46°12' W 123°48'0 0.0
2016-Feb-06 11:32N 46°12' W 123°48'0 0.0
2016-Feb-06 10:32N 46°12' W 123°48'0 0.0
2016-Feb-06 09:32N 46°12' W 123°48'0 0.0
2016-Feb-06 08:32N 46°12' W 123°48'0 0.0
2016-Feb-06 07:32N 46°12' W 123°48'0 0.0
2016-Feb-06 06:32N 46°12' W 123°48'0 0.0
2016-Feb-06 05:32N 46°12' W 123°48'0 0.0
2016-Feb-06 04:32N 46°12' W 123°48'0 0.0
2016-Feb-06 03:32N 46°12' W 123°48'0 0.0
2016-Feb-06 02:32N 46°12' W 123°48'0 0.0
2016-Feb-06 01:32N 46°12' W 123°48'0 0.0
2016-Feb-06 00:32N 46°12' W 123°48'0 0.0
2016-Feb-05 23:32N 46°12' W 123°48'0 0.0
2016-Feb-05 22:32N 46°12' W 123°48'0 0.0
2016-Feb-05 21:32N 46°12' W 123°48'0 0.0
2016-Feb-05 20:32N 46°12' W 123°48'2 2.3
2016-Feb-05 19:34N 46°12' W 123°51'0 0.3
2016-Feb-05 18:31N 46°11' W 123°51'1 0.9
2016-Feb-05 17:33N 46°12' W 123°50'2 1.5
2016-Feb-05 16:31N 46°12' W 123°48'0 0.0
2016-Feb-05 15:31N 46°12' W 123°48'0 0.0
2016-Feb-05 14:31N 46°12' W 123°48'0 0.0
2016-Feb-05 13:31N 46°12' W 123°48'0 0.0
2016-Feb-05 12:31N 46°12' W 123°48'0 0.0
2016-Feb-05 11:31N 46°12' W 123°48'0 0.0
2016-Feb-05 10:31N 46°12' W 123°48'0 0.0
2016-Feb-05 09:31N 46°12' W 123°48'0 0.0
2016-Feb-05 08:31N 46°12' W 123°48'0 0.0
2016-Feb-05 07:31N 46°12' W 123°48'0 0.0
2016-Feb-05 06:31N 46°12' W 123°48'0 0.0
2016-Feb-05 05:31N 46°12' W 123°48'0 0.0
2016-Feb-05 04:31N 46°12' W 123°48'0 0.0
2016-Feb-05 03:31N 46°12' W 123°48'0 0.0
2016-Feb-05 02:31N 46°12' W 123°48'0 0.0
2016-Feb-05 01:31N 46°12' W 123°48'0 0.0
2016-Feb-05 00:28N 46°12' W 123°48'0 0.0
2016-Feb-04 23:25N 46°12' W 123°48'0 0.0
2016-Feb-04 22:31N 46°12' W 123°48'0 0.0
2016-Feb-04 21:31N 46°12' W 123°48'0 0.0
2016-Feb-04 20:31N 46°12' W 123°48'0 0.0
2016-Feb-04 19:31N 46°12' W 123°48'0 0.0
2016-Feb-04 18:31N 46°12' W 123°48'0 0.0
2016-Feb-04 17:31N 46°12' W 123°48'0 0.0
2016-Feb-04 16:31N 46°12' W 123°48'0 0.0
2016-Feb-04 15:31N 46°12' W 123°48'0 0.0
2016-Feb-04 14:31N 46°12' W 123°48'0 0.0
2016-Feb-04 13:31N 46°12' W 123°48'0 0.0
2016-Feb-04 12:31N 46°12' W 123°48'0 0.0
2016-Feb-04 11:31N 46°12' W 123°48'0 0.0
2016-Feb-04 10:31N 46°12' W 123°48'0 0.0
2016-Feb-04 09:31N 46°12' W 123°48'0 0.0
2016-Feb-04 08:31N 46°12' W 123°48'0 0.0
2016-Feb-04 07:31N 46°12' W 123°48'0 0.0
2016-Feb-04 06:31N 46°12' W 123°48'0 0.0
2016-Feb-04 05:31N 46°12' W 123°48'0 0.0
2016-Feb-04 04:31N 46°12' W 123°48'0 0.0
2016-Feb-04 03:28N 46°12' W 123°48'0 0.0
2016-Feb-04 02:32N 46°12' W 123°48'0 0.0
2016-Feb-04 01:31N 46°12' W 123°48'0 0.0
2016-Feb-04 00:32N 46°12' W 123°48'0 0.0
2016-Feb-03 23:31N 46°12' W 123°48'0 0.0
2016-Feb-03 22:31N 46°12' W 123°48'0 0.0
2016-Feb-03 21:32N 46°12' W 123°48'0 0.0
2016-Feb-03 20:32N 46°12' W 123°48'0 0.0
2016-Feb-03 19:31N 46°12' W 123°48'0 0.0
2016-Feb-03 18:32N 46°12' W 123°48'0 0.0
2016-Feb-03 17:32N 46°12' W 123°48'0 0.0
2016-Feb-03 16:32N 46°12' W 123°48'0 0.0
2016-Feb-03 15:32N 46°12' W 123°48'0 0.0
2016-Feb-03 14:32N 46°12' W 123°48'0 0.0
2016-Feb-03 13:32N 46°12' W 123°48'0 0.0
2016-Feb-03 12:32N 46°12' W 123°48'0 0.0
2016-Feb-03 11:32N 46°12' W 123°48'0 0.0
2016-Feb-03 10:32N 46°12' W 123°48'0 0.0
2016-Feb-03 09:32N 46°12' W 123°48'0 0.0
2016-Feb-03 08:32N 46°12' W 123°48'0 0.0
2016-Feb-03 07:32N 46°12' W 123°48'0 0.0
2016-Feb-03 06:32N 46°12' W 123°48'0 0.0
2016-Feb-03 05:32N 46°12' W 123°48'0 0.0
2016-Feb-03 04:32N 46°12' W 123°48'0 0.0
2016-Feb-03 03:32N 46°12' W 123°48'0 0.0
2016-Feb-03 02:32N 46°12' W 123°48'0 0.0
2016-Feb-03 01:32N 46°12' W 123°48'0 0.0
2016-Feb-03 00:32N 46°12' W 123°48'0 0.0
2016-Feb-02 23:32N 46°12' W 123°48'0 0.0
2016-Feb-02 22:32N 46°12' W 123°48'0 0.0
2016-Feb-02 21:32N 46°12' W 123°48'0 0.0
2016-Feb-02 20:32N 46°12' W 123°48'0 0.0
2016-Feb-02 19:32N 46°12' W 123°48'0 0.0
2016-Feb-02 18:32N 46°12' W 123°48'0 0.0
2016-Feb-02 17:32N 46°12' W 123°48'0 0.0
2016-Feb-02 16:32N 46°12' W 123°48'0 0.0
2016-Feb-02 15:32N 46°12' W 123°48'0 0.0
2016-Feb-02 14:32N 46°12' W 123°48'0 0.0
2016-Feb-02 13:32N 46°12' W 123°48'0 0.0
2016-Feb-02 12:29N 46°12' W 123°48'0 0.0
2016-Feb-02 11:32N 46°12' W 123°48'0 0.0
2016-Feb-02 10:29N 46°12' W 123°48'0 0.0
2016-Feb-02 09:32N 46°12' W 123°48'0 0.0
2016-Feb-02 08:32N 46°12' W 123°48'0 0.0
2016-Feb-02 07:32N 46°12' W 123°48'0 0.0
2016-Feb-02 06:32N 46°12' W 123°48'0 0.0
2016-Feb-02 05:32N 46°12' W 123°48'0 0.0
2016-Feb-02 04:32N 46°12' W 123°48'0 0.0
2016-Feb-02 03:32N 46°12' W 123°48'0 0.0
2016-Feb-02 02:32N 46°12' W 123°48'0 0.0
2016-Feb-02 01:32N 46°12' W 123°48'0 0.0
2016-Feb-02 00:32N 46°12' W 123°48'0 0.0
2016-Feb-01 23:32N 46°12' W 123°48'0 0.0
2016-Feb-01 22:32N 46°12' W 123°48'0 0.0
2016-Feb-01 21:32N 46°12' W 123°48'  

Dump ship's entire track history